Time;durP1;ratioP1;P1;durP2;ratioP2;P2;SDS_P1;SDS_P2;PMS_P1;PMS_P2;Temp;Humidity;BMP_temperature;BMP_pressure;BME280_temperature;BME280_humidity;BME280_pressure;Samples;Min_cycle;Max_cycle;Signal;HPM_P1;HPM_P2
2022/12/10 00:01:52;;;;;;;34.30;21.00;;;;;;;3.19;75.39;97474.66;103355;1299;97932;-68
2022/12/10 00:04:21;;;;;;;33.30;19.40;;;;;;;3.19;75.21;97479.94;103381;1298;107633;-69
2022/12/10 00:06:50;;;;;;;33.90;18.60;;;;;;;3.19;75.44;97484.46;103374;1298;97896;-68
2022/12/10 00:09:21;;;;;;;37.70;22.70;;;;;;;3.21;75.27;97476.98;103386;1297;97979;-70
2022/12/10 00:11:51;;;;;;;42.90;25.90;;;;;;;3.21;75.41;97469.80;103480;1291;111949;-69
2022/12/10 00:14:22;;;;;;;35.90;20.10;;;;;;;3.21;75.40;97467.88;103448;1296;95111;-70
2022/12/10 00:16:50;;;;;;;31.30;18.30;;;;;;;3.21;75.50;97466.85;103379;1297;107972;-69
2022/12/10 00:19:17;;;;;;;31.70;16.90;;;;;;;3.20;75.39;97459.21;103425;1291;97902;-69
2022/12/10 00:21:46;;;;;;;33.10;18.10;;;;;;;3.20;75.45;97457.13;103381;1298;95462;-70
2022/12/10 00:24:14;;;;;;;31.70;17.20;;;;;;;3.18;75.22;97459.56;103409;1291;110321;-69
2022/12/10 00:26:45;;;;;;;31.20;18.00;;;;;;;3.17;75.62;97457.33;103461;1291;97882;-70
2022/12/10 00:29:14;;;;;;;29.60;16.20;;;;;;;3.17;75.42;97458.88;103393;1298;107792;-69
2022/12/10 00:31:42;;;;;;;30.60;17.00;;;;;;;3.18;75.47;97456.23;103333;1298;97960;-69
2022/12/10 00:34:13;;;;;;;35.20;18.20;;;;;;;3.19;75.57;97456.69;103274;1295;97936;-71
2022/12/10 00:36:49;;;;;;;31.90;17.00;;;;;;;3.17;75.61;97453.63;103465;1291;111862;-68
2022/12/10 00:39:22;;;;;;;32.60;18.20;;;;;;;3.16;75.68;97455.98;103451;1298;97698;-68
2022/12/10 00:41:50;;;;;;;33.80;17.70;;;;;;;3.17;75.56;97459.91;103482;1292;108242;-67
2022/12/10 00:44:18;;;;;;;31.30;17.90;;;;;;;3.19;75.48;97457.73;103362;1305;97898;-68
2022/12/10 00:46:47;;;;;;;30.90;17.10;;;;;;;3.18;75.48;97458.11;103421;1299;97936;-68
2022/12/10 00:49:14;;;;;;;31.50;16.60;;;;;;;3.19;75.67;97455.25;103415;1298;111734;-70
2022/12/10 00:51:42;;;;;;;32.00;16.90;;;;;;;3.20;75.61;97453.07;103406;1297;97979;-69
2022/12/10 00:54:11;;;;;;;31.40;18.00;;;;;;;3.22;75.66;97451.38;103381;1298;107506;-68
2022/12/10 00:56:44;;;;;;;29.70;17.10;;;;;;;3.24;75.59;97455.58;103393;1298;95175;-68
2022/12/10 00:59:12;;;;;;;31.70;18.20;;;;;;;3.25;75.83;97451.98;103435;1291;97921;-69
2022/12/10 01:01:45;;;;;;;32.80;18.20;;;;;;;3.26;75.77;97450.00;103547;1297;111811;-68
2022/12/10 01:04:19;;;;;;;32.70;18.30;;;;;;;3.26;75.72;97447.42;103503;1298;97966;-67
2022/12/10 01:06:52;;;;;;;32.00;18.70;;;;;;;3.25;75.77;97445.52;103186;1294;108258;-68
2022/12/10 01:09:26;;;;;;;29.80;16.90;;;;;;;3.25;75.79;97437.83;103359;1296;97916;-69
2022/12/10 01:12:03;;;;;;;30.40;16.90;;;;;;;3.25;75.68;97439.40;103388;1291;96359;-68
2022/12/10 01:14:34;;;;;;;31.40;17.10;;;;;;;3.26;75.70;97442.15;103403;1293;111873;-68
2022/12/10 01:17:07;;;;;;;32.70;18.00;;;;;;;3.27;75.85;97443.48;103274;1291;95888;-70
2022/12/10 01:19:35;;;;;;;;;;;;;;;3.28;75.82;97443.58;103439;1292;107945;-68
2022/12/10 01:22:05;;;;;;;32.10;18.00;;;;;;;3.27;75.67;97444.38;103366;1300;97973;-68
2022/12/10 01:24:34;;;;;;;33.50;19.40;;;;;;;3.27;75.83;97447.86;103367;1294;97981;-68
2022/12/10 01:27:03;;;;;;;31.30;17.00;;;;;;;3.27;76.03;97452.38;103365;1296;111782;-68
2022/12/10 01:29:31;;;;;;;30.40;17.60;;;;;;;3.27;75.81;97448.73;103377;1302;96252;-69
2022/12/10 01:32:00;;;;;;;32.10;17.30;;;;;;;3.26;75.97;97442.27;104459;1298;108035;-68
2022/12/10 01:34:31;;;;;;;32.30;18.70;;;;;;;3.26;75.74;97437.45;103413;1295;97877;-68
2022/12/10 01:36:59;;;;;;;30.80;17.80;;;;;;;3.26;75.89;97430.71;103430;1297;98555;-69
2022/12/10 01:39:27;;;;;;;31.70;17.90;;;;;;;3.28;75.94;97429.73;103453;1305;111729;-67
2022/12/10 01:41:58;;;;;;;29.90;18.10;;;;;;;3.30;76.00;97427.67;103497;1299;97874;-68
2022/12/10 01:44:26;;;;;;;33.20;18.80;;;;;;;3.32;75.85;97427.74;103437;1299;106955;-68
2022/12/10 01:47:01;;;;;;;31.20;18.90;;;;;;;3.32;76.05;97428.45;103404;1297;97836;-68
2022/12/10 01:49:35;;;;;;;32.60;18.70;;;;;;;3.32;75.92;97424.91;103419;1293;99273;-69
2022/12/10 01:52:08;;;;;;;33.40;19.00;;;;;;;3.34;76.17;97423.73;103407;1291;111805;-69
2022/12/10 01:54:43;;;;;;;34.60;18.80;;;;;;;3.36;76.09;97430.60;105172;1291;96110;-68
2022/12/10 01:57:27;;;;;;;32.30;19.20;;;;;;;3.38;76.08;97425.02;104820;1298;107624;-68
2022/12/10 02:00:00;;;;;;;32.20;18.90;;;;;;;3.41;76.00;97418.70;103517;1292;97975;-69
2022/12/10 02:02:58;;;;;;;34.80;20.20;;;;;;;3.42;76.00;97417.39;103430;1291;97842;-68
2022/12/10 02:05:44;;;;;;;35.10;20.60;;;;;;;3.44;75.97;97416.21;103400;1299;110384;-68
2022/12/10 02:08:42;;;;;;;36.00;21.30;;;;;;;3.45;76.04;97417.89;103355;1299;98100;-68
2022/12/10 02:11:28;;;;;;;38.50;23.70;;;;;;;3.46;76.10;97420.83;103392;1299;108170;-68
2022/12/10 02:14:03;;;;;;;41.90;23.50;;;;;;;3.47;76.01;97426.32;103411;1297;97997;-69
2022/12/10 02:16:40;;;;;;;41.00;22.90;;;;;;;3.48;76.08;97430.30;103417;1291;95108;-68
2022/12/10 02:19:39;;;;;;;35.60;20.10;;;;;;;3.48;76.13;97429.64;103318;1299;111239;-68
2022/12/10 02:22:12;;;;;;;35.40;19.60;;;;;;;3.48;75.99;97430.69;103412;1298;97849;-68
2022/12/10 02:24:41;;;;;;;33.30;19.90;;;;;;;3.48;76.17;97428.56;103485;1299;107398;-69
2022/12/10 02:27:31;;;;;;;34.50;19.60;;;;;;;3.48;76.19;97429.79;103509;1299;97989;-70
2022/12/10 02:30:02;;;;;;;33.40;19.50;;;;;;;3.49;76.17;97433.75;103485;1297;97896;-69
2022/12/10 02:32:41;;;;;;;32.70;19.40;;;;;;;3.49;76.17;97432.17;103408;1297;111524;-68
2022/12/10 02:35:26;;;;;;;33.80;20.20;;;;;;;3.49;76.28;97428.81;103393;1297;95195;-69
2022/12/10 02:38:03;;;;;;;;;;;;;;;3.50;76.16;97431.42;103457;1297;108068;-68
2022/12/10 02:40:36;;;;;;;30.20;17.20;;;;;;;3.48;76.58;97429.98;103407;1295;97953;-69
2022/12/10 02:43:10;;;;;;;29.40;16.90;;;;;;;3.47;76.18;97437.91;103488;1297;97947;-68
2022/12/10 02:45:43;;;;;;;28.50;16.20;;;;;;;3.47;76.21;97449.35;103412;1305;111832;-68
2022/12/10 02:48:14;;;;;;;27.70;15.80;;;;;;;3.45;76.24;97453.98;103397;1297;97995;-68
2022/12/10 02:50:44;;;;;;;30.10;17.10;;;;;;;3.44;76.28;97455.80;103387;1299;108374;-68
2022/12/10 02:53:14;;;;;;;26.90;15.60;;;;;;;3.43;76.13;97450.26;103452;1297;97952;-68
2022/12/10 02:55:51;;;;;;;28.90;15.10;;;;;;;3.42;76.19;97447.33;103423;1297;95188;-67
2022/12/10 02:58:34;;;;;;;26.10;14.90;;;;;;;3.43;76.19;97452.94;103372;1299;111852;-67
2022/12/10 03:01:25;;;;;;;28.90;15.30;;;;;;;3.41;76.33;97452.73;103457;1297;98645;-68
2022/12/10 03:04:25;;;;;;;28.60;16.30;;;;;;;3.38;76.20;97448.14;103279;1298;108001;-68
2022/12/10 03:07:01;;;;;;;29.50;16.10;;;;;;;3.35;76.18;97450.16;103381;1296;95264;-68
2022/12/10 03:09:37;;;;;;;29.90;15.90;;;;;;;3.34;76.68;97443.17;103412;1299;95208;-68
2022/12/10 03:12:34;;;;;;;27.70;15.40;;;;;;;3.34;76.35;97441.58;103448;1299;111373;-68
2022/12/10 03:15:09;;;;;;;25.90;13.60;;;;;;;3.34;76.28;97443.55;103441;1295;97983;-67
2022/12/10 03:17:42;;;;;;;28.00;13.80;;;;;;;3.31;76.32;97451.10;103249;1294;107183;-67
2022/12/10 03:20:16;;;;;;;26.70;14.00;;;;;;;3.29;76.17;97447.93;103422;1299;97793;-68
2022/12/10 03:22:49;;;;;;;26.40;13.70;;;;;;;3.26;76.25;97445.98;103411;1299;97973;-68
2022/12/10 03:25:26;;;;;;;22.90;11.30;;;;;;;3.25;76.33;97442.89;103396;1297;111858;-67
2022/12/10 03:27:59;;;;;;;23.10;12.00;;;;;;;3.22;76.29;97446.46;103451;1292;95316;-68
2022/12/10 03:30:31;;;;;;;23.70;12.40;;;;;;;3.20;76.47;97444.65;103390;1298;108011;-68
2022/12/10 03:33:03;;;;;;;24.10;12.40;;;;;;;3.19;76.44;97446.15;103451;1297;97909;-68
2022/12/10 03:35:34;;;;;;;25.20;12.50;;;;;;;3.20;76.71;97458.20;103364;1300;98561;-67
2022/12/10 03:38:06;;;;;;;27.50;14.00;;;;;;;3.19;76.25;97464.73;103300;1300;111670;-68
2022/12/10 03:40:35;;;;;;;27.80;13.50;;;;;;;3.18;76.39;97470.77;103422;1290;99012;-69
2022/12/10 03:43:03;;;;;;;27.20;13.50;;;;;;;3.15;76.41;97469.89;103452;1301;107937;-68
2022/12/10 03:45:31;;;;;;;25.80;13.60;;;;;;;3.11;76.45;97476.09;103226;1297;97856;-68
2022/12/10 03:47:59;;;;;;;27.60;13.30;;;;;;;3.10;76.45;97473.20;103469;1290;97892;-68
2022/12/10 03:50:27;;;;;;;27.90;13.30;;;;;;;3.07;76.24;97466.04;103410;1299;111771;-69
2022/12/10 03:52:55;;;;;;;28.20;14.40;;;;;;;3.04;76.43;97466.07;103441;1303;97863;-67
2022/12/10 03:55:24;;;;;;;26.50;14.10;;;;;;;2.99;76.24;97470.41;103407;1297;108080;-68
2022/12/10 03:57:52;;;;;;;28.90;14.10;;;;;;;2.96;76.19;97468.00;103416;1297;97948;-68
2022/12/10 04:00:20;;;;;;;26.90;13.80;;;;;;;2.94;76.24;97468.14;103377;1298;97879;-67
2022/12/10 04:02:48;;;;;;;30.40;15.60;;;;;;;2.94;76.57;97474.10;103357;1299;111770;-67
2022/12/10 04:05:16;;;;;;;29.60;14.00;;;;;;;2.92;76.30;97486.32;103459;1298;97920;-67
2022/12/10 04:07:44;;;;;;;27.00;14.40;;;;;;;2.87;76.15;97492.55;103411;1300;105989;-67
2022/12/10 04:10:13;;;;;;;27.30;13.80;;;;;;;2.80;76.28;97503.88;103422;1301;97955;-67
2022/12/10 04:12:41;;;;;;;25.70;13.50;;;;;;;2.77;76.22;97503.17;103444;1300;97887;-68
2022/12/10 04:17:57;;;;;;;25.50;12.60;;;;;;;2.72;76.19;97496.02;103273;1299;97955;-68
2022/12/10 04:28:47;;;;;;;26.90;12.60;;;;;;;2.62;76.40;97508.21;103353;1294;111640;-70
2022/12/10 04:31:15;;;;;;;24.40;12.40;;;;;;;2.60;76.31;97511.29;103360;1293;97884;-71
2022/12/10 04:33:45;;;;;;;24.20;11.70;;;;;;;2.59;76.33;97511.39;103388;1298;108606;-72
2022/12/10 04:36:13;;;;;;;23.00;12.30;;;;;;;2.54;76.13;97510.48;103228;1301;95939;-69
2022/12/10 04:38:41;;;;;;;23.80;12.30;;;;;;;2.50;76.31;97510.53;103385;1292;97954;-69
2022/12/10 04:41:15;;;;;;;25.00;12.10;;;;;;;2.49;76.44;97510.08;103404;1297;111756;-67
2022/12/10 04:43:45;;;;;;;23.30;11.70;;;;;;;2.44;76.31;97510.08;103484;1298;97835;-68
2022/12/10 04:46:13;;;;;;;24.30;12.10;;;;;;;2.41;76.24;97506.91;103345;1291;126212;-67
2022/12/10 04:48:45;;;;;;;23.00;11.30;;;;;;;2.42;76.25;97505.83;103505;1299;97960;-67
2022/12/10 04:51:13;;;;;;;23.40;11.30;;;;;;;2.40;76.33;97515.73;103489;1286;95543;-68
2022/12/10 04:53:40;;;;;;;26.10;12.10;;;;;;;2.39;76.43;97520.00;103501;1299;111809;-67
2022/12/10 04:56:08;;;;;;;25.40;12.10;;;;;;;2.38;76.52;97530.91;103504;1296;98015;-68
2022/12/10 04:58:37;;;;;;;27.50;12.70;;;;;;;2.32;76.05;97533.56;103477;1299;107887;-69
2022/12/10 05:01:11;;;;;;;29.30;13.10;;;;;;;2.24;76.05;97540.56;103529;1297;95188;-69
2022/12/10 05:03:42;;;;;;;25.10;11.40;;;;;;;2.12;76.23;97543.05;103534;1297;97771;-68
2022/12/10 05:06:15;;;;;;;26.00;11.60;;;;;;;2.01;76.61;97546.19;103486;1292;111775;-72
2022/12/10 05:08:44;;;;;;;24.00;11.40;;;;;;;1.96;76.56;97551.00;103487;1297;98572;-70
2022/12/10 05:11:17;;;;;;;27.90;11.80;;;;;;;1.90;76.25;97560.80;103500;1297;108073;-69
2022/12/10 05:13:47;;;;;;;23.90;10.20;;;;;;;1.86;76.43;97565.78;103482;1297;97911;-68
2022/12/10 05:16:22;;;;;;;25.90;10.00;;;;;;;1.80;76.38;97570.15;103384;1293;97864;-68
2022/12/10 05:18:55;;;;;;;25.00;10.90;;;;;;;1.73;76.43;97579.34;103392;1291;110944;-68
2022/12/10 05:23:27;;;;;;;24.30;11.20;;;;;;;1.67;76.19;97586.14;103403;1297;95160;-67
2022/12/10 05:24:17;;;;;;;24.30;10.80;;;;;;;1.62;76.39;97589.58;103366;1291;108140;-68
2022/12/10 05:26:51;;;;;;;22.60;10.80;;;;;;;1.62;76.51;97588.16;103393;1298;96354;-68
2022/12/10 05:29:19;;;;;;;25.90;11.70;;;;;;;1.63;76.58;97585.36;103455;1291;98378;-68
2022/12/10 05:31:47;;;;;;;27.60;11.80;;;;;;;1.64;76.63;97588.26;103346;1291;111406;-68
2022/12/10 05:34:15;;;;;;;24.90;11.90;;;;;;;1.65;76.38;97583.48;103486;1291;96279;-67
2022/12/10 05:36:43;;;;;;;27.90;11.30;;;;;;;1.64;76.50;97583.19;103387;1298;108152;-68
2022/12/10 05:39:11;;;;;;;28.40;13.70;;;;;;;1.61;76.24;97583.73;103416;1295;97897;-68
2022/12/10 05:41:45;;;;;;;27.50;12.20;;;;;;;1.60;76.48;97586.91;103413;1292;97821;-69
2022/12/10 05:44:13;;;;;;;27.90;11.80;;;;;;;1.58;76.24;97585.11;103408;1294;111134;-68
2022/12/10 05:46:41;;;;;;;27.30;12.80;;;;;;;1.55;76.37;97586.38;103372;1301;97004;-69
2022/12/10 05:49:12;;;;;;;30.10;13.00;;;;;;;1.56;76.63;97585.95;103238;1295;108088;-70
2022/12/10 05:51:42;;;;;;;32.30;13.20;;;;;;;1.56;76.42;97595.73;103352;1298;97846;-68
2022/12/10 05:54:10;;;;;;;32.30;12.10;;;;;;;1.52;76.43;97604.02;103255;1302;97960;-68
2022/12/10 05:56:38;;;;;;;29.00;12.20;;;;;;;1.44;76.38;97608.64;103352;1297;111370;-68
2022/12/10 05:59:06;;;;;;;38.70;14.60;;;;;;;1.40;76.47;97617.08;103530;1291;96237;-68
2022/12/10 06:01:43;;;;;;;36.60;14.10;;;;;;;1.39;76.41;97618.73;103403;1298;108114;-70
2022/12/10 06:04:14;;;;;;;34.60;14.20;;;;;;;1.35;76.43;97616.31;103451;1298;97963;-69
2022/12/10 06:06:43;;;;;;;29.80;13.00;;;;;;;1.34;76.33;97619.19;103546;1298;97126;-68
2022/12/10 06:09:16;;;;;;;;;;;;;;;1.31;76.56;97628.06;103413;1299;110618;-67
2022/12/10 06:11:44;;;;;;;32.40;11.40;;;;;;;1.29;76.61;97632.23;103411;1297;97890;-67
2022/12/10 06:14:12;;;;;;;29.40;12.70;;;;;;;1.29;76.79;97638.34;103365;1292;108153;-68
2022/12/10 06:16:43;;;;;;;25.30;11.00;;;;;;;1.27;76.69;97637.20;103362;1292;97996;-69
2022/12/10 06:19:11;;;;;;;33.00;12.30;;;;;;;1.24;76.78;97638.08;103373;1299;97853;-67
2022/12/10 06:21:41;;;;;;;41.20;15.20;;;;;;;1.21;76.61;97644.39;103527;1289;112094;-68
2022/12/10 06:24:13;;;;;;;46.20;20.30;;;;;;;1.18;76.90;97652.92;103412;1291;98536;-67
2022/12/10 06:26:41;;;;;;;36.20;16.90;;;;;;;1.15;76.83;97645.77;103423;1298;108119;-69
2022/12/10 06:29:09;;;;;;;37.90;15.30;;;;;;;1.14;76.61;97649.30;103345;1298;97979;-66
2022/12/10 06:31:38;;;;;;;37.50;17.30;;;;;;;1.09;76.78;97649.95;103391;1297;97859;-66
2022/12/10 06:34:09;;;;;;;31.50;15.80;;;;;;;1.05;76.38;97658.75;103405;1284;111820;-68
2022/12/10 06:36:41;;;;;;;31.60;15.40;;;;;;;1.02;76.89;97668.16;103337;1300;97888;-67
2022/12/10 06:39:09;;;;;;;29.00;12.30;;;;;;;1.04;76.87;97664.88;103449;1299;107440;-67
2022/12/10 06:41:38;;;;;;;27.90;12.70;;;;;;;1.04;76.82;97653.51;103384;1294;97986;-68
2022/12/10 06:44:12;;;;;;;27.80;13.30;;;;;;;1.06;77.07;97647.50;103409;1292;97988;-68
2022/12/10 06:46:40;;;;;;;31.20;14.30;;;;;;;1.09;76.98;97648.19;103474;1291;110714;-68
2022/12/10 06:49:11;;;;;;;32.60;16.00;;;;;;;1.12;77.13;97650.66;103436;1296;97833;-68
2022/12/10 06:51:38;;;;;;;32.80;13.90;;;;;;;1.14;76.86;97649.34;103483;1299;107940;-67
2022/12/10 06:54:06;;;;;;;31.90;14.30;;;;;;;1.11;76.86;97659.45;103431;1291;97859;-68
2022/12/10 06:56:34;;;;;;;31.60;13.70;;;;;;;1.12;77.10;97675.10;103529;1295;96332;-68
2022/12/10 06:59:08;;;;;;;28.40;11.80;;;;;;;1.11;77.03;97680.89;103510;1299;111455;-68
2022/12/10 07:01:41;;;;;;;28.50;11.80;;;;;;;1.10;76.93;97672.61;103323;1294;98078;-68
2022/12/10 07:04:09;;;;;;;21.30;9.40;;;;;;;1.07;77.13;97680.58;103485;1298;108017;-69
2022/12/10 07:06:37;;;;;;;26.20;10.20;;;;;;;1.08;76.85;97682.63;105170;1290;95538;-68
2022/12/10 07:09:06;;;;;;;25.00;10.30;;;;;;;1.07;77.19;97687.96;105219;1290;95579;-67
2022/12/10 07:11:33;;;;;;;27.40;10.40;;;;;;;1.07;76.99;97694.79;105235;1284;111251;-67
2022/12/10 07:14:02;;;;;;;33.40;11.70;;;;;;;1.07;76.86;97686.20;103802;1291;96296;-68
2022/12/10 07:16:32;;;;;;;27.00;11.60;;;;;;;1.07;77.02;97678.69;105117;1299;107736;-69
2022/12/10 07:19:02;;;;;;;27.30;10.70;;;;;;;1.10;77.00;97675.06;105218;1291;95665;-67
2022/12/10 07:21:32;;;;;;;31.70;9.70;;;;;;;1.12;76.98;97681.73;105268;1290;95471;-67
2022/12/10 07:24:10;;;;;;;22.90;10.30;;;;;;;1.15;77.00;97693.61;103478;1296;111274;-66
2022/12/10 07:26:44;;;;;;;33.00;11.60;;;;;;;1.19;77.03;97705.10;103436;1292;97984;-66
2022/12/10 07:29:20;;;;;;;32.60;14.70;;;;;;;1.20;77.13;97707.67;103428;1298;107497;-67
2022/12/10 07:31:54;;;;;;;34.30;13.70;;;;;;;1.21;77.23;97724.88;103371;1299;97920;-67
2022/12/10 07:34:22;;;;;;;;;;;;;;;1.21;77.12;97726.80;103463;1285;97978;-67
2022/12/10 07:36:50;;;;;;;26.20;9.70;;;;;;;1.17;76.94;97729.27;103404;1298;111259;-67
2022/12/10 07:39:18;;;;;;;27.70;10.90;;;;;;;1.12;77.08;97728.36;103403;1298;95269;-66
2022/12/10 07:41:54;;;;;;;31.80;10.90;;;;;;;1.10;77.07;97730.55;103220;1297;108110;-67
2022/12/10 07:44:26;;;;;;;34.20;13.80;;;;;;;1.08;77.17;97731.18;103427;1299;98069;-68
2022/12/10 07:46:58;;;;;;;24.70;11.50;;;;;;;1.08;77.25;97736.45;103578;1292;97899;-67
2022/12/10 07:49:26;;;;;;;25.70;10.90;;;;;;;1.08;77.45;97747.61;103522;1297;111846;-67
2022/12/10 07:51:55;;;;;;;25.00;10.10;;;;;;;1.10;77.41;97761.30;103413;1297;97872;-66
2022/12/10 07:54:23;;;;;;;29.30;12.50;;;;;;;1.13;77.27;97763.92;103379;1292;108085;-67
2022/12/10 07:56:55;;;;;;;31.60;13.10;;;;;;;1.13;77.16;97763.52;103387;1286;97876;-67
2022/12/10 07:59:22;;;;;;;32.50;11.90;;;;;;;1.11;77.16;97754.77;103408;1286;97963;-68
2022/12/10 08:01:55;;;;;;;28.30;11.50;;;;;;;1.03;77.12;97754.51;103465;1299;111386;-68
2022/12/10 08:04:23;;;;;;;30.10;12.70;;;;;;;0.98;77.18;97751.46;103482;1291;95189;-68
2022/12/10 08:06:57;;;;;;;27.00;13.00;;;;;;;1.00;77.26;97747.84;103384;1295;107978;-66
2022/12/10 08:09:25;;;;;;;35.40;14.70;;;;;;;1.01;77.51;97748.35;103403;1292;97967;-67
2022/12/10 08:11:53;;;;;;;31.50;14.20;;;;;;;1.03;77.35;97747.67;103410;1291;97894;-68
2022/12/10 08:14:21;;;;;;;30.70;13.30;;;;;;;1.03;77.14;97747.34;103496;1292;111480;-67
2022/12/10 08:16:49;;;;;;;28.50;12.40;;;;;;;1.02;77.42;97743.88;103406;1297;95118;-68
2022/12/10 08:19:17;;;;;;;30.60;13.20;;;;;;;1.05;77.58;97741.31;103412;1298;108102;-67
2022/12/10 08:21:53;;;;;;;27.60;12.70;;;;;;;1.10;77.70;97746.64;103422;1291;97814;-68
2022/12/10 08:24:21;;;;;;;27.70;12.70;;;;;;;1.13;77.45;97752.90;103422;1299;98429;-68
2022/12/10 08:26:49;;;;;;;25.30;12.00;;;;;;;1.11;77.42;97755.45;103431;1298;111198;-67
2022/12/10 08:29:21;;;;;;;26.00;11.50;;;;;;;1.09;77.60;97748.96;103478;1290;97891;-67
2022/12/10 08:31:49;;;;;;;24.80;11.10;;;;;;;1.06;77.38;97746.33;103435;1301;108227;-72
2022/12/10 08:34:19;;;;;;;22.70;11.20;;;;;;;1.03;77.64;97749.95;103410;1292;99031;-67
2022/12/10 08:36:47;;;;;;;29.80;11.90;;;;;;;1.06;77.63;97753.68;103492;1300;97829;-67
2022/12/10 08:39:19;;;;;;;23.60;11.00;;;;;;;1.08;77.61;97761.95;103471;1297;111786;-67
2022/12/10 08:41:47;;;;;;;24.50;11.60;;;;;;;1.06;77.42;97762.55;103446;1301;97876;-68
2022/12/10 08:44:15;;;;;;;24.80;11.00;;;;;;;1.04;77.37;97762.98;103394;1302;107803;-67
2022/12/10 08:46:43;;;;;;;24.20;11.60;;;;;;;1.05;77.72;97772.74;103479;1300;98404;-68
2022/12/10 08:49:14;;;;;;;25.80;11.50;;;;;;;1.07;77.53;97784.14;103433;1302;96945;-68
2022/12/10 08:51:42;;;;;;;23.10;10.70;;;;;;;1.10;77.80;97788.14;103379;1300;112205;-67
2022/12/10 08:54:10;;;;;;;21.50;10.10;;;;;;;1.12;77.51;97791.36;103373;1300;95135;-67
2022/12/10 08:56:42;;;;;;;23.20;11.60;;;;;;;1.14;77.71;97804.70;103432;1300;107317;-69
2022/12/10 08:59:12;;;;;;;25.10;9.90;;;;;;;1.16;77.88;97808.94;103444;1294;98555;-68
2022/12/10 09:01:42;;;;;;;23.50;11.30;;;;;;;1.19;77.68;97809.33;103488;1301;97962;-68
2022/12/10 09:04:15;;;;;;;26.20;13.40;;;;;;;1.20;77.89;97803.17;103470;1299;111659;-67
2022/12/10 09:06:44;;;;;;;28.00;11.80;;;;;;;1.18;77.84;97798.73;103270;1295;97969;-68
2022/12/10 09:09:12;;;;;;;25.30;12.30;;;;;;;1.18;77.74;97797.85;103344;1291;108251;-67
2022/12/10 09:11:40;;;;;;;24.50;12.20;;;;;;;1.21;77.79;97803.48;103335;1294;97989;-67
2022/12/10 09:14:07;;;;;;;25.20;14.00;;;;;;;1.24;78.04;97810.77;104090;1292;97975;-66
2022/12/10 09:16:39;;;;;;;26.10;14.30;;;;;;;1.29;77.84;97811.77;103432;1291;112235;-66
2022/12/10 09:19:09;;;;;;;28.30;14.60;;;;;;;1.32;77.66;97820.33;103485;1297;95633;-66
2022/12/10 09:21:44;;;;;;;24.90;12.00;;;;;;;1.33;77.73;97822.72;103477;1297;108073;-66
2022/12/10 09:24:12;;;;;;;25.70;12.60;;;;;;;1.35;77.70;97822.79;103405;1299;96393;-68
2022/12/10 09:26:41;;;;;;;26.00;12.70;;;;;;;1.37;77.54;97822.35;103480;1291;97875;-67
2022/12/10 09:29:09;;;;;;;25.30;12.60;;;;;;;1.35;77.43;97816.49;103465;1297;111421;-66
2022/12/10 09:31:37;;;;;;;28.80;13.00;;;;;;;1.35;77.68;97813.54;103391;1297;97907;-68
2022/12/10 09:34:06;;;;;;;27.10;13.80;;;;;;;1.37;77.79;97811.71;103331;1294;108104;-68
2022/12/10 09:36:34;;;;;;;26.70;14.20;;;;;;;1.37;77.56;97808.21;103268;1301;97795;-69
2022/12/10 09:39:02;;;;;;;26.00;13.70;;;;;;;1.37;77.81;97803.15;103412;1298;97760;-68
2022/12/10 09:41:36;;;;;;;30.70;15.00;;;;;;;1.39;77.61;97800.58;103404;1291;111396;-67
2022/12/10 09:44:07;;;;;;;27.30;13.00;;;;;;;1.42;77.84;97793.93;103399;1291;97887;-68
2022/12/10 09:46:57;;;;;;;26.00;12.50;;;;;;;1.40;77.52;97791.98;103409;1301;108127;-68
2022/12/10 09:49:53;;;;;;;27.00;14.80;;;;;;;1.37;77.79;97784.43;103251;1295;97907;-67
2022/12/10 09:52:29;;;;;;;23.90;12.00;;;;;;;1.38;77.76;97778.10;103386;1300;97901;-68
2022/12/10 09:55:08;;;;;;;27.60;14.40;;;;;;;1.41;77.89;97778.30;103514;1298;111729;-68
2022/12/10 09:57:40;;;;;;;28.70;14.60;;;;;;;1.43;77.95;97770.79;103516;1295;97928;-67
2022/12/10 10:00:38;;;;;;;29.50;15.50;;;;;;;1.45;77.90;97768.42;103377;1291;107492;-68
2022/12/10 10:03:16;;;;;;;30.90;15.00;;;;;;;1.48;78.08;97764.73;103501;1299;97986;-68
2022/12/10 10:05:51;;;;;;;29.50;14.20;;;;;;;1.52;77.84;97763.17;103310;1291;97975;-68
2022/12/10 10:08:42;;;;;;;30.20;16.20;;;;;;;1.51;78.14;97764.96;103532;1291;111173;-69
2022/12/10 10:11:19;;;;;;;31.00;14.90;;;;;;;1.52;77.95;97765.27;103528;1291;97971;-69
2022/12/10 10:14:01;;;;;;;31.60;15.60;;;;;;;1.53;78.05;97768.73;103332;1297;106832;-67
2022/12/10 10:16:37;;;;;;;30.30;15.20;;;;;;;1.53;77.86;97772.02;103527;1299;97742;-67
2022/12/10 10:19:16;;;;;;;28.50;14.90;;;;;;;1.52;77.72;97771.21;103375;1295;97969;-67
2022/12/10 10:21:50;;;;;;;31.00;16.00;;;;;;;1.52;77.55;97774.52;103526;1297;109574;-67
2022/12/10 10:24:28;;;;;;;31.80;16.00;;;;;;;1.53;77.78;97770.98;103415;1291;95150;-67
2022/12/10 10:27:15;;;;;;;28.30;14.20;;;;;;;1.52;77.90;97769.61;103416;1291;107513;-67
2022/12/10 10:29:50;;;;;;;27.90;13.50;;;;;;;1.50;77.73;97778.45;103408;1291;97829;-68
2022/12/10 10:32:37;;;;;;;28.70;15.20;;;;;;;1.50;77.97;97786.33;103538;1299;97770;-67
2022/12/10 10:35:28;;;;;;;29.60;15.90;;;;;;;1.51;77.98;97790.63;103410;1292;111753;-67
2022/12/10 10:38:26;;;;;;;31.30;15.10;;;;;;;1.53;77.90;97789.84;103415;1291;98052;-67
2022/12/10 10:41:02;;;;;;;31.90;16.20;;;;;;;1.53;77.69;97791.42;103373;1298;107977;-67
2022/12/10 10:43:42;;;;;;;31.20;16.20;;;;;;;1.52;77.80;97793.04;103350;1301;98035;-69
2022/12/10 10:46:16;;;;;;;30.50;16.40;;;;;;;1.50;77.72;97796.64;103486;1295;97885;-69
2022/12/10 10:48:50;;;;;;;33.60;16.70;;;;;;;1.50;77.76;97805.19;103488;1300;110849;-68
2022/12/10 10:51:24;;;;;;;27.50;14.40;;;;;;;1.50;77.83;97804.68;103510;1285;97977;-68
2022/12/10 10:53:59;;;;;;;28.20;14.10;;;;;;;1.47;77.88;97805.52;103522;1291;106496;-67
2022/12/10 10:56:47;;;;;;;29.10;13.90;;;;;;;1.46;77.65;97806.11;103449;1294;98104;-68
2022/12/10 10:59:16;;;;;;;27.00;13.70;;;;;;;1.47;77.71;97809.39;103472;1291;97924;-69
2022/12/10 11:01:57;;;;;;;24.50;12.40;;;;;;;1.48;77.82;97809.34;103401;1292;111472;-67
2022/12/10 11:04:34;;;;;;;23.40;11.70;;;;;;;1.46;77.75;97805.06;103280;1293;97891;-67
2022/12/10 11:07:20;;;;;;;25.20;11.90;;;;;;;1.43;77.53;97800.14;103520;1291;108266;-67
2022/12/10 11:09:55;;;;;;;23.30;12.30;;;;;;;1.37;77.99;97801.21;103429;1284;95209;-67
2022/12/10 11:12:28;;;;;;;29.30;13.60;;;;;;;1.34;77.64;97801.70;103501;1298;97970;-67
2022/12/10 11:15:01;;;;;;;25.10;13.30;;;;;;;1.36;77.74;97802.49;103480;1298;111673;-67
2022/12/10 11:17:29;;;;;;;21.10;10.70;;;;;;;1.33;77.72;97808.23;103452;1298;97963;-67
2022/12/10 11:20:26;;;;;;;26.10;12.20;;;;;;;1.32;77.90;97807.73;103444;1300;108123;-68
2022/12/10 11:23:01;;;;;;;28.60;13.00;;;;;;;1.37;77.78;97802.94;103480;1292;98006;-68
2022/12/10 11:25:40;;;;;;;30.70;14.00;;;;;;;1.41;77.95;97799.44;103517;1298;95131;-68
2022/12/10 11:28:29;;;;;;;30.40;14.50;;;;;;;1.43;77.92;97792.82;103501;1291;111768;-68
2022/12/10 11:31:22;;;;;;;29.70;15.10;;;;;;;1.45;77.83;97793.42;103561;1295;97974;-68
2022/12/10 11:34:15;;;;;;;28.30;15.00;;;;;;;1.46;77.77;97793.35;103484;1298;107235;-67
2022/12/10 11:37:01;;;;;;;29.40;14.80;;;;;;;1.49;77.82;97795.30;103415;1291;97870;-69
2022/12/10 11:39:53;;;;;;;29.30;15.60;;;;;;;1.50;77.74;97792.80;103479;1294;97067;-67
2022/12/10 11:42:26;;;;;;;29.90;16.20;;;;;;;1.52;78.01;97795.13;103410;1291;112869;-67
2022/12/10 11:45:11;;;;;;;31.50;17.50;;;;;;;1.54;78.04;97794.85;103537;1291;98340;-67
2022/12/10 11:47:38;;;;;;;;;;;;;;;1.56;78.11;97799.10;103476;1299;107508;-67
2022/12/10 11:50:32;;;;;;;29.10;15.40;;;;;;;1.55;77.96;97793.72;103479;1298;98041;-68
2022/12/10 11:53:08;;;;;;;29.70;15.20;;;;;;;1.56;77.99;97795.10;103528;1291;97947;-69